sensor_id;sensor_type;location;lat;lon;timestamp;P1;durP1;ratioP1;P2;durP2;ratioP2
42802;SDS011;28447;48.682;9.022;2023-03-14T05:00:44;3.07;;;1.50;;
42802;SDS011;28447;48.682;9.022;2023-03-14T05:03:10;5.57;;;1.63;;
42802;SDS011;28447;48.682;9.022;2023-03-14T05:05:35;2.10;;;1.60;;
42802;SDS011;28447;48.682;9.022;2023-03-14T05:08:01;2.97;;;1.27;;
42802;SDS011;28447;48.682;9.022;2023-03-14T05:10:27;1.37;;;1.23;;
42802;SDS011;28447;48.682;9.022;2023-03-14T05:12:52;3.47;;;1.57;;
42802;SDS011;28447;48.682;9.022;2023-03-14T05:15:18;5.60;;;1.43;;
42802;SDS011;28447;48.682;9.022;2023-03-14T05:17:43;6.87;;;1.57;;
42802;SDS011;28447;48.682;9.022;2023-03-14T05:20:09;2.50;;;1.30;;
42802;SDS011;28447;48.682;9.022;2023-03-14T05:22:37;3.30;;;1.50;;
42802;SDS011;28447;48.682;9.022;2023-03-14T05:25:03;5.63;;;1.33;;
42802;SDS011;28447;48.682;9.022;2023-03-14T05:27:30;4.07;;;1.50;;
42802;SDS011;28447;48.682;9.022;2023-03-14T05:29:55;1.87;;;1.50;;
42802;SDS011;28447;48.682;9.022;2023-03-14T05:32:21;2.63;;;1.40;;
42802;SDS011;28447;48.682;9.022;2023-03-14T05:34:46;7.13;;;1.40;;
42802;SDS011;28447;48.682;9.022;2023-03-14T05:37:12;4.13;;;1.40;;
42802;SDS011;28447;48.682;9.022;2023-03-14T05:39:38;5.03;;;2.33;;
42802;SDS011;28447;48.682;9.022;2023-03-14T05:42:03;3.50;;;1.70;;
42802;SDS011;28447;48.682;9.022;2023-03-14T05:44:29;2.40;;;1.20;;
42802;SDS011;28447;48.682;9.022;2023-03-14T05:46:55;3.87;;;1.50;;
42802;SDS011;28447;48.682;9.022;2023-03-14T05:49:20;6.67;;;1.40;;
42802;SDS011;28447;48.682;9.022;2023-03-14T05:51:46;1.93;;;1.50;;
42802;SDS011;28447;48.682;9.022;2023-03-14T05:54:12;5.30;;;1.47;;
42802;SDS011;28447;48.682;9.022;2023-03-14T05:56:37;3.50;;;1.20;;
42802;SDS011;28447;48.682;9.022;2023-03-14T05:59:03;2.40;;;1.30;;
42802;SDS011;28447;48.682;9.022;2023-03-14T06:01:29;2.90;;;1.30;;
42802;SDS011;28447;48.682;9.022;2023-03-14T06:03:54;2.37;;;1.30;;
42802;SDS011;28447;48.682;9.022;2023-03-14T06:06:20;1.83;;;1.20;;
42802;SDS011;28447;48.682;9.022;2023-03-14T06:08:46;2.53;;;1.30;;
42802;SDS011;28447;48.682;9.022;2023-03-14T06:11:12;3.30;;;1.20;;
42802;SDS011;28447;48.682;9.022;2023-03-14T06:13:38;3.80;;;1.50;;
42802;SDS011;28447;48.682;9.022;2023-03-14T06:16:04;2.90;;;1.30;;
42802;SDS011;28447;48.682;9.022;2023-03-14T06:18:29;3.40;;;1.33;;
42802;SDS011;28447;48.682;9.022;2023-03-14T06:20:56;4.80;;;1.87;;
42802;SDS011;28447;48.682;9.022;2023-03-14T06:23:22;2.23;;;1.30;;
42802;SDS011;28447;48.682;9.022;2023-03-14T06:25:47;2.27;;;1.10;;
42802;SDS011;28447;48.682;9.022;2023-03-14T06:28:13;2.03;;;1.10;;
42802;SDS011;28447;48.682;9.022;2023-03-14T06:30:39;3.10;;;1.60;;
42802;SDS011;28447;48.682;9.022;2023-03-14T06:33:05;2.60;;;1.30;;
42802;SDS011;28447;48.682;9.022;2023-03-14T06:35:30;2.13;;;1.30;;
42802;SDS011;28447;48.682;9.022;2023-03-14T06:37:56;2.33;;;1.17;;
42802;SDS011;28447;48.682;9.022;2023-03-14T06:40:21;3.97;;;1.23;;
42802;SDS011;28447;48.682;9.022;2023-03-14T06:42:47;2.90;;;1.30;;
42802;SDS011;28447;48.682;9.022;2023-03-14T06:45:13;4.47;;;1.23;;
42802;SDS011;28447;48.682;9.022;2023-03-14T06:47:39;1.30;;;1.20;;
42802;SDS011;28447;48.682;9.022;2023-03-14T06:50:05;2.10;;;1.20;;
42802;SDS011;28447;48.682;9.022;2023-03-14T06:52:31;1.47;;;1.27;;
42802;SDS011;28447;48.682;9.022;2023-03-14T06:54:57;1.90;;;1.07;;
42802;SDS011;28447;48.682;9.022;2023-03-14T06:57:23;3.53;;;1.40;;
42802;SDS011;28447;48.682;9.022;2023-03-14T06:59:48;2.00;;;1.20;;
42802;SDS011;28447;48.682;9.022;2023-03-14T07:02:14;2.80;;;1.10;;
42802;SDS011;28447;48.682;9.022;2023-03-14T07:04:40;2.23;;;1.20;;
42802;SDS011;28447;48.682;9.022;2023-03-14T07:07:05;1.43;;;1.03;;
42802;SDS011;28447;48.682;9.022;2023-03-14T07:09:32;1.90;;;1.10;;
42802;SDS011;28447;48.682;9.022;2023-03-14T07:11:58;2.67;;;1.13;;
42802;SDS011;28447;48.682;9.022;2023-03-14T07:14:24;1.50;;;1.10;;
42802;SDS011;28447;48.682;9.022;2023-03-14T07:16:49;4.23;;;1.40;;
42802;SDS011;28447;48.682;9.022;2023-03-14T07:19:15;1.60;;;1.10;;
42802;SDS011;28447;48.682;9.022;2023-03-14T07:21:41;1.37;;;1.10;;
42802;SDS011;28447;48.682;9.022;2023-03-14T07:24:06;3.13;;;1.20;;
42802;SDS011;28447;48.682;9.022;2023-03-14T07:26:32;2.17;;;1.10;;
42802;SDS011;28447;48.682;9.022;2023-03-14T07:28:58;1.33;;;1.07;;
42802;SDS011;28447;48.682;9.022;2023-03-14T07:31:24;3.50;;;1.07;;
42802;SDS011;28447;48.682;9.022;2023-03-14T07:33:50;3.67;;;1.20;;
42802;SDS011;28447;48.682;9.022;2023-03-14T07:36:16;2.40;;;1.03;;
42802;SDS011;28447;48.682;9.022;2023-03-14T07:38:42;2.07;;;1.17;;
42802;SDS011;28447;48.682;9.022;2023-03-14T07:41:08;1.70;;;1.10;;
42802;SDS011;28447;48.682;9.022;2023-03-14T07:43:34;2.33;;;1.10;;
42802;SDS011;28447;48.682;9.022;2023-03-14T07:46:00;1.63;;;1.10;;
42802;SDS011;28447;48.682;9.022;2023-03-14T07:48:25;2.53;;;1.30;;
42802;SDS011;28447;48.682;9.022;2023-03-14T07:50:52;2.93;;;1.20;;
42802;SDS011;28447;48.682;9.022;2023-03-14T07:53:19;1.47;;;1.10;;
42802;SDS011;28447;48.682;9.022;2023-03-14T07:55:46;2.07;;;1.10;;
42802;SDS011;28447;48.682;9.022;2023-03-14T07:58:12;2.03;;;1.20;;
42802;SDS011;28447;48.682;9.022;2023-03-14T08:00:38;1.50;;;1.00;;
42802;SDS011;28447;48.682;9.022;2023-03-14T08:03:03;4.77;;;1.10;;
42802;SDS011;28447;48.682;9.022;2023-03-14T08:05:29;2.20;;;1.20;;
42802;SDS011;28447;48.682;9.022;2023-03-14T08:07:55;3.00;;;1.07;;
42802;SDS011;28447;48.682;9.022;2023-03-14T08:10:21;1.30;;;0.93;;
42802;SDS011;28447;48.682;9.022;2023-03-14T08:12:49;3.40;;;1.37;;
42802;SDS011;28447;48.682;9.022;2023-03-14T08:15:20;2.10;;;1.20;;
42802;SDS011;28447;48.682;9.022;2023-03-14T08:17:46;1.80;;;1.00;;
42802;SDS011;28447;48.682;9.022;2023-03-14T08:20:16;2.10;;;1.33;;
42802;SDS011;28447;48.682;9.022;2023-03-14T08:22:42;1.63;;;1.20;;
42802;SDS011;28447;48.682;9.022;2023-03-14T08:25:08;5.50;;;1.30;;
42802;SDS011;28447;48.682;9.022;2023-03-14T08:27:34;1.17;;;1.03;;
42802;SDS011;28447;48.682;9.022;2023-03-14T08:30:02;1.30;;;1.03;;
42802;SDS011;28447;48.682;9.022;2023-03-14T08:32:29;1.83;;;1.20;;
42802;SDS011;28447;48.682;9.022;2023-03-14T08:34:55;1.50;;;1.00;;
42802;SDS011;28447;48.682;9.022;2023-03-14T08:37:21;2.57;;;1.23;;
42802;SDS011;28447;48.682;9.022;2023-03-14T08:39:47;1.40;;;1.10;;
42802;SDS011;28447;48.682;9.022;2023-03-14T08:42:13;1.63;;;1.13;;
42802;SDS011;28447;48.682;9.022;2023-03-14T08:44:38;2.50;;;1.10;;
42802;SDS011;28447;48.682;9.022;2023-03-14T08:47:04;1.20;;;1.00;;
42802;SDS011;28447;48.682;9.022;2023-03-14T08:49:30;3.43;;;1.13;;
42802;SDS011;28447;48.682;9.022;2023-03-14T08:51:56;1.40;;;0.90;;
42802;SDS011;28447;48.682;9.022;2023-03-14T08:54:21;1.20;;;1.00;;
42802;SDS011;28447;48.682;9.022;2023-03-14T08:56:47;1.73;;;0.90;;
42802;SDS011;28447;48.682;9.022;2023-03-14T08:59:12;3.10;;;1.20;;
42802;SDS011;28447;48.682;9.022;2023-03-14T09:01:38;3.00;;;1.20;;
42802;SDS011;28447;48.682;9.022;2023-03-14T09:04:04;1.73;;;0.90;;
42802;SDS011;28447;48.682;9.022;2023-03-14T09:06:29;1.10;;;1.00;;
42802;SDS011;28447;48.682;9.022;2023-03-14T09:08:55;1.23;;;1.10;;
42802;SDS011;28447;48.682;9.022;2023-03-14T09:11:21;1.23;;;1.10;;
42802;SDS011;28447;48.682;9.022;2023-03-14T09:13:46;2.10;;;1.10;;
42802;SDS011;28447;48.682;9.022;2023-03-14T09:16:13;1.40;;;1.00;;
42802;SDS011;28447;48.682;9.022;2023-03-14T09:18:39;1.60;;;1.00;;
42802;SDS011;28447;48.682;9.022;2023-03-14T09:21:05;2.50;;;1.13;;
42802;SDS011;28447;48.682;9.022;2023-03-14T09:23:31;1.60;;;1.00;;
42802;SDS011;28447;48.682;9.022;2023-03-14T09:25:57;1.93;;;1.00;;
42802;SDS011;28447;48.682;9.022;2023-03-14T09:28:23;1.20;;;0.90;;
42802;SDS011;28447;48.682;9.022;2023-03-14T09:30:49;1.83;;;0.90;;
42802;SDS011;28447;48.682;9.022;2023-03-14T09:33:15;1.40;;;1.00;;
42802;SDS011;28447;48.682;9.022;2023-03-14T09:35:41;1.67;;;1.00;;
42802;SDS011;28447;48.682;9.022;2023-03-14T09:38:07;2.17;;;1.20;;
42802;SDS011;28447;48.682;9.022;2023-03-14T09:40:36;1.03;;;0.90;;
42802;SDS011;28447;48.682;9.022;2023-03-14T09:43:03;1.10;;;0.93;;
42802;SDS011;28447;48.682;9.022;2023-03-14T09:45:34;1.00;;;0.80;;
42802;SDS011;28447;48.682;9.022;2023-03-14T09:48:02;1.53;;;0.97;;
42802;SDS011;28447;48.682;9.022;2023-03-14T09:50:39;1.00;;;0.90;;
42802;SDS011;28447;48.682;9.022;2023-03-14T09:53:12;1.40;;;1.00;;
42802;SDS011;28447;48.682;9.022;2023-03-14T09:55:45;2.57;;;1.00;;
42802;SDS011;28447;48.682;9.022;2023-03-14T09:58:14;5.80;;;1.13;;
42802;SDS011;28447;48.682;9.022;2023-03-14T10:00:44;1.10;;;0.90;;
42802;SDS011;28447;48.682;9.022;2023-03-14T10:05:39;1.10;;;0.90;;
42802;SDS011;28447;48.682;9.022;2023-03-14T10:08:06;1.93;;;0.80;;
42802;SDS011;28447;48.682;9.022;2023-03-14T10:10:35;1.00;;;0.80;;
42802;SDS011;28447;48.682;9.022;2023-03-14T10:15:59;1.93;;;0.90;;
42802;SDS011;28447;48.682;9.022;2023-03-14T10:18:27;1.20;;;1.00;;
42802;SDS011;28447;48.682;9.022;2023-03-14T10:21:05;1.77;;;1.10;;
42802;SDS011;28447;48.682;9.022;2023-03-14T10:23:41;1.10;;;0.87;;
42802;SDS011;28447;48.682;9.022;2023-03-14T10:26:08;3.83;;;1.00;;
42802;SDS011;28447;48.682;9.022;2023-03-14T10:28:41;0.90;;;0.80;;
42802;SDS011;28447;48.682;9.022;2023-03-14T10:31:12;1.40;;;1.03;;
42802;SDS011;28447;48.682;9.022;2023-03-14T10:33:39;1.20;;;0.90;;
42802;SDS011;28447;48.682;9.022;2023-03-14T10:38:51;2.60;;;1.00;;
42802;SDS011;28447;48.682;9.022;2023-03-14T10:41:30;1.53;;;0.90;;
42802;SDS011;28447;48.682;9.022;2023-03-14T10:43:58;2.20;;;1.10;;
42802;SDS011;28447;48.682;9.022;2023-03-14T10:46:26;2.27;;;0.90;;
42802;SDS011;28447;48.682;9.022;2023-03-14T10:48:56;1.00;;;0.80;;
42802;SDS011;28447;48.682;9.022;2023-03-14T10:51:26;0.97;;;0.80;;
42802;SDS011;28447;48.682;9.022;2023-03-14T10:54:02;2.47;;;0.90;;
42802;SDS011;28447;48.682;9.022;2023-03-14T10:56:44;1.50;;;1.10;;
42802;SDS011;28447;48.682;9.022;2023-03-14T10:59:20;1.07;;;0.93;;
42802;SDS011;28447;48.682;9.022;2023-03-14T11:01:56;1.10;;;0.90;;
42802;SDS011;28447;48.682;9.022;2023-03-14T11:07:41;1.40;;;0.90;;
42802;SDS011;28447;48.682;9.022;2023-03-14T11:10:10;2.90;;;1.20;;
42802;SDS011;28447;48.682;9.022;2023-03-14T11:15:41;6.23;;;1.00;;
42802;SDS011;28447;48.682;9.022;2023-03-14T11:23:46;1.20;;;0.97;;
42802;SDS011;28447;48.682;9.022;2023-03-14T11:29:25;1.07;;;0.97;;
42802;SDS011;28447;48.682;9.022;2023-03-14T11:31:54;1.00;;;0.90;;
42802;SDS011;28447;48.682;9.022;2023-03-14T11:34:38;1.60;;;1.00;;
42802;SDS011;28447;48.682;9.022;2023-03-14T11:42:43;1.00;;;0.90;;
42802;SDS011;28447;48.682;9.022;2023-03-14T11:45:24;1.23;;;1.00;;
42802;SDS011;28447;48.682;9.022;2023-03-14T11:51:20;1.20;;;1.00;;
42802;SDS011;28447;48.682;9.022;2023-03-14T11:56:25;1.00;;;0.87;;
42802;SDS011;28447;48.682;9.022;2023-03-14T11:58:59;1.10;;;0.97;;
42802;SDS011;28447;48.682;9.022;2023-03-14T12:01:45;1.00;;;0.90;;
42802;SDS011;28447;48.682;9.022;2023-03-14T12:07:16;1.20;;;0.80;;
42802;SDS011;28447;48.682;9.022;2023-03-14T12:09:49;1.00;;;0.80;;
42802;SDS011;28447;48.682;9.022;2023-03-14T12:12:20;1.10;;;0.90;;
42802;SDS011;28447;48.682;9.022;2023-03-14T12:14:57;1.03;;;0.93;;
42802;SDS011;28447;48.682;9.022;2023-03-14T12:17:38;1.00;;;0.90;;
42802;SDS011;28447;48.682;9.022;2023-03-14T12:20:18;1.20;;;1.00;;
42802;SDS011;28447;48.682;9.022;2023-03-14T12:22:46;1.13;;;0.93;;
42802;SDS011;28447;48.682;9.022;2023-03-14T12:25:16;2.13;;;1.20;;
42802;SDS011;28447;48.682;9.022;2023-03-14T12:27:46;1.10;;;1.00;;
42802;SDS011;28447;48.682;9.022;2023-03-14T12:30:18;1.80;;;1.10;;
42802;SDS011;28447;48.682;9.022;2023-03-14T12:38:04;1.20;;;1.10;;
42802;SDS011;28447;48.682;9.022;2023-03-14T12:40:36;1.20;;;1.10;;
42802;SDS011;28447;48.682;9.022;2023-03-14T12:48:44;1.40;;;1.20;;
42802;SDS011;28447;48.682;9.022;2023-03-14T12:51:16;1.20;;;1.10;;
42802;SDS011;28447;48.682;9.022;2023-03-14T13:01:36;1.57;;;1.40;;
42802;SDS011;28447;48.682;9.022;2023-03-14T13:04:10;2.40;;;1.33;;
42802;SDS011;28447;48.682;9.022;2023-03-14T13:06:53;1.90;;;1.27;;
42802;SDS011;28447;48.682;9.022;2023-03-14T13:12:18;1.83;;;1.43;;
42802;SDS011;28447;48.682;9.022;2023-03-14T13:14:52;1.77;;;1.30;;
42802;SDS011;28447;48.682;9.022;2023-03-14T13:17:52;1.47;;;1.33;;
42802;SDS011;28447;48.682;9.022;2023-03-14T13:20:14;1.50;;;1.20;;
42802;SDS011;28447;48.682;9.022;2023-03-14T13:22:51;1.70;;;1.30;;
42802;SDS011;28447;48.682;9.022;2023-03-14T13:25:17;1.57;;;1.40;;
42802;SDS011;28447;48.682;9.022;2023-03-14T13:27:45;2.27;;;1.40;;
42802;SDS011;28447;48.682;9.022;2023-03-14T13:30:26;1.63;;;1.33;;
42802;SDS011;28447;48.682;9.022;2023-03-14T13:33:04;1.77;;;1.30;;
42802;SDS011;28447;48.682;9.022;2023-03-14T13:35:37;2.97;;;1.33;;
42802;SDS011;28447;48.682;9.022;2023-03-14T13:38:27;3.60;;;1.70;;
42802;SDS011;28447;48.682;9.022;2023-03-14T13:40:55;3.33;;;1.53;;
42802;SDS011;28447;48.682;9.022;2023-03-14T13:43:27;5.70;;;1.40;;
42802;SDS011;28447;48.682;9.022;2023-03-14T13:48:42;5.50;;;1.70;;
42802;SDS011;28447;48.682;9.022;2023-03-14T13:51:11;4.10;;;1.53;;
42802;SDS011;28447;48.682;9.022;2023-03-14T13:53:46;2.70;;;1.60;;
42802;SDS011;28447;48.682;9.022;2023-03-14T13:56:15;2.90;;;1.47;;
42802;SDS011;28447;48.682;9.022;2023-03-14T13:58:41;1.57;;;1.40;;
42802;SDS011;28447;48.682;9.022;2023-03-14T14:03:49;2.40;;;1.63;;
42802;SDS011;28447;48.682;9.022;2023-03-14T14:06:18;1.73;;;1.33;;
42802;SDS011;28447;48.682;9.022;2023-03-14T14:08:59;1.83;;;1.30;;
42802;SDS011;28447;48.682;9.022;2023-03-14T14:14:21;2.63;;;1.40;;
42802;SDS011;28447;48.682;9.022;2023-03-14T14:16:52;3.27;;;1.40;;
42802;SDS011;28447;48.682;9.022;2023-03-14T14:19:19;1.57;;;1.20;;
42802;SDS011;28447;48.682;9.022;2023-03-14T14:21:48;1.60;;;1.13;;
42802;SDS011;28447;48.682;9.022;2023-03-14T14:24:14;1.90;;;1.30;;
42802;SDS011;28447;48.682;9.022;2023-03-14T14:26:41;2.43;;;1.20;;
42802;SDS011;28447;48.682;9.022;2023-03-14T14:29:24;2.00;;;1.27;;
42802;SDS011;28447;48.682;9.022;2023-03-14T14:34:43;2.87;;;1.43;;
42802;SDS011;28447;48.682;9.022;2023-03-14T14:37:25;4.03;;;1.30;;
42802;SDS011;28447;48.682;9.022;2023-03-14T14:39:57;2.93;;;1.20;;
42802;SDS011;28447;48.682;9.022;2023-03-14T14:42:25;3.07;;;1.37;;
42802;SDS011;28447;48.682;9.022;2023-03-14T14:44:55;2.40;;;1.43;;
42802;SDS011;28447;48.682;9.022;2023-03-14T14:47:22;2.87;;;1.50;;
42802;SDS011;28447;48.682;9.022;2023-03-14T14:49:51;2.03;;;1.50;;
42802;SDS011;28447;48.682;9.022;2023-03-14T14:52:19;2.17;;;1.20;;
42802;SDS011;28447;48.682;9.022;2023-03-14T14:57:22;3.83;;;1.27;;
42802;SDS011;28447;48.682;9.022;2023-03-14T15:00:02;2.37;;;1.60;;
42802;SDS011;28447;48.682;9.022;2023-03-14T15:02:44;2.70;;;1.60;;
42802;SDS011;28447;48.682;9.022;2023-03-14T15:05:12;2.03;;;1.27;;
42802;SDS011;28447;48.682;9.022;2023-03-14T15:07:42;2.67;;;1.57;;
42802;SDS011;28447;48.682;9.022;2023-03-14T15:10:15;2.47;;;1.30;;
42802;SDS011;28447;48.682;9.022;2023-03-14T15:12:43;2.00;;;1.50;;
42802;SDS011;28447;48.682;9.022;2023-03-14T15:15:09;2.43;;;1.53;;
42802;SDS011;28447;48.682;9.022;2023-03-14T15:17:36;4.83;;;1.27;;
42802;SDS011;28447;48.682;9.022;2023-03-14T15:20:03;5.30;;;2.63;;
42802;SDS011;28447;48.682;9.022;2023-03-14T15:22:30;2.50;;;1.40;;
42802;SDS011;28447;48.682;9.022;2023-03-14T15:24:56;3.10;;;1.33;;
42802;SDS011;28447;48.682;9.022;2023-03-14T15:27:21;2.70;;;1.60;;
42802;SDS011;28447;48.682;9.022;2023-03-14T15:29:48;2.03;;;1.50;;
42802;SDS011;28447;48.682;9.022;2023-03-14T15:32:15;3.60;;;1.70;;
42802;SDS011;28447;48.682;9.022;2023-03-14T15:34:41;4.10;;;1.63;;
42802;SDS011;28447;48.682;9.022;2023-03-14T15:37:10;1.87;;;1.33;;
42802;SDS011;28447;48.682;9.022;2023-03-14T15:39:37;4.37;;;1.73;;
42802;SDS011;28447;48.682;9.022;2023-03-14T15:42:03;6.27;;;1.80;;
42802;SDS011;28447;48.682;9.022;2023-03-14T15:44:28;4.47;;;1.47;;
42802;SDS011;28447;48.682;9.022;2023-03-14T15:46:54;1.93;;;1.30;;
42802;SDS011;28447;48.682;9.022;2023-03-14T15:49:20;5.60;;;2.07;;
42802;SDS011;28447;48.682;9.022;2023-03-14T15:51:45;4.57;;;1.50;;
42802;SDS011;28447;48.682;9.022;2023-03-14T15:54:11;2.57;;;1.67;;
42802;SDS011;28447;48.682;9.022;2023-03-14T15:56:36;2.30;;;1.33;;
42802;SDS011;28447;48.682;9.022;2023-03-14T15:59:02;2.40;;;1.53;;
42802;SDS011;28447;48.682;9.022;2023-03-14T16:01:28;3.40;;;1.70;;
42802;SDS011;28447;48.682;9.022;2023-03-14T16:03:53;1.50;;;1.40;;
42802;SDS011;28447;48.682;9.022;2023-03-14T16:06:19;2.67;;;1.50;;
42802;SDS011;28447;48.682;9.022;2023-03-14T16:08:45;2.63;;;1.40;;
42802;SDS011;28447;48.682;9.022;2023-03-14T16:11:12;2.30;;;1.60;;
42802;SDS011;28447;48.682;9.022;2023-03-14T16:13:40;2.13;;;1.47;;
42802;SDS011;28447;48.682;9.022;2023-03-14T16:16:07;2.80;;;1.60;;
42802;SDS011;28447;48.682;9.022;2023-03-14T16:18:34;2.43;;;1.43;;
42802;SDS011;28447;48.682;9.022;2023-03-14T16:21:02;6.97;;;1.77;;
42802;SDS011;28447;48.682;9.022;2023-03-14T16:23:33;2.57;;;1.60;;
42802;SDS011;28447;48.682;9.022;2023-03-14T16:26:02;1.50;;;1.37;;
42802;SDS011;28447;48.682;9.022;2023-03-14T16:28:29;2.10;;;1.83;;
42802;SDS011;28447;48.682;9.022;2023-03-14T16:30:59;4.00;;;1.60;;
42802;SDS011;28447;48.682;9.022;2023-03-14T16:33:26;2.40;;;1.40;;
42802;SDS011;28447;48.682;9.022;2023-03-14T16:35:56;2.67;;;1.30;;
42802;SDS011;28447;48.682;9.022;2023-03-14T16:38:25;3.53;;;1.70;;
42802;SDS011;28447;48.682;9.022;2023-03-14T16:40:57;3.10;;;2.00;;
42802;SDS011;28447;48.682;9.022;2023-03-14T16:43:25;3.63;;;2.30;;
42802;SDS011;28447;48.682;9.022;2023-03-14T16:45:52;8.47;;;2.00;;
42802;SDS011;28447;48.682;9.022;2023-03-14T16:48:17;2.50;;;1.90;;
42802;SDS011;28447;48.682;9.022;2023-03-14T16:50:44;3.70;;;1.63;;
42802;SDS011;28447;48.682;9.022;2023-03-14T16:53:10;2.60;;;1.67;;
42802;SDS011;28447;48.682;9.022;2023-03-14T16:55:39;2.27;;;1.53;;
42802;SDS011;28447;48.682;9.022;2023-03-14T16:58:06;3.30;;;1.60;;
42802;SDS011;28447;48.682;9.022;2023-03-14T17:00:32;2.47;;;1.10;;
42802;SDS011;28447;48.682;9.022;2023-03-14T17:02:58;11.50;;;1.80;;
42802;SDS011;28447;48.682;9.022;2023-03-14T17:05:24;3.63;;;1.60;;
42802;SDS011;28447;48.682;9.022;2023-03-14T17:07:49;3.00;;;1.47;;
42802;SDS011;28447;48.682;9.022;2023-03-14T17:10:15;1.80;;;1.53;;
42802;SDS011;28447;48.682;9.022;2023-03-14T17:12:42;3.47;;;2.23;;
42802;SDS011;28447;48.682;9.022;2023-03-14T17:15:08;5.50;;;2.33;;
42802;SDS011;28447;48.682;9.022;2023-03-14T17:17:35;1.97;;;1.70;;
42802;SDS011;28447;48.682;9.022;2023-03-14T17:20:01;5.53;;;1.83;;
42802;SDS011;28447;48.682;9.022;2023-03-14T17:22:27;2.23;;;1.90;;
42802;SDS011;28447;48.682;9.022;2023-03-14T17:24:53;2.70;;;1.63;;
42802;SDS011;28447;48.682;9.022;2023-03-14T17:27:18;4.50;;;1.90;;
42802;SDS011;28447;48.682;9.022;2023-03-14T17:29:45;2.90;;;1.80;;
42802;SDS011;28447;48.682;9.022;2023-03-14T17:32:12;6.37;;;1.93;;
42802;SDS011;28447;48.682;9.022;2023-03-14T17:34:38;2.70;;;1.90;;
42802;SDS011;28447;48.682;9.022;2023-03-14T17:37:04;2.27;;;1.40;;
42802;SDS011;28447;48.682;9.022;2023-03-14T17:39:30;3.70;;;2.77;;
42802;SDS011;28447;48.682;9.022;2023-03-14T17:41:55;4.73;;;2.03;;
42802;SDS011;28447;48.682;9.022;2023-03-14T17:44:21;3.93;;;1.90;;
42802;SDS011;28447;48.682;9.022;2023-03-14T17:46:47;1.93;;;1.60;;
42802;SDS011;28447;48.682;9.022;2023-03-14T17:49:13;2.47;;;1.90;;
42802;SDS011;28447;48.682;9.022;2023-03-14T17:51:39;4.60;;;1.83;;
42802;SDS011;28447;48.682;9.022;2023-03-14T17:54:04;4.33;;;2.13;;
42802;SDS011;28447;48.682;9.022;2023-03-14T17:56:30;4.07;;;2.53;;
42802;SDS011;28447;48.682;9.022;2023-03-14T17:58:56;5.83;;;3.13;;
42802;SDS011;28447;48.682;9.022;2023-03-14T18:01:22;3.17;;;1.80;;
42802;SDS011;28447;48.682;9.022;2023-03-14T18:03:48;2.77;;;1.83;;
42802;SDS011;28447;48.682;9.022;2023-03-14T18:06:20;2.30;;;1.80;;
42802;SDS011;28447;48.682;9.022;2023-03-14T18:08:46;3.30;;;2.10;;
42802;SDS011;28447;48.682;9.022;2023-03-14T18:11:12;7.33;;;2.13;;
42802;SDS011;28447;48.682;9.022;2023-03-14T18:13:38;4.97;;;2.50;;
42802;SDS011;28447;48.682;9.022;2023-03-14T18:16:05;5.17;;;2.30;;
42802;SDS011;28447;48.682;9.022;2023-03-14T18:18:32;4.17;;;2.90;;
42802;SDS011;28447;48.682;9.022;2023-03-14T18:20:58;3.43;;;2.87;;
42802;SDS011;28447;48.682;9.022;2023-03-14T18:23:24;3.90;;;2.90;;
42802;SDS011;28447;48.682;9.022;2023-03-14T18:25:50;5.37;;;3.60;;
42802;SDS011;28447;48.682;9.022;2023-03-14T18:28:16;7.43;;;3.03;;
42802;SDS011;28447;48.682;9.022;2023-03-14T18:30:42;3.77;;;2.77;;
42802;SDS011;28447;48.682;9.022;2023-03-14T18:33:11;2.80;;;2.33;;
42802;SDS011;28447;48.682;9.022;2023-03-14T18:35:37;6.40;;;3.50;;
42802;SDS011;28447;48.682;9.022;2023-03-14T18:38:02;4.23;;;2.40;;
42802;SDS011;28447;48.682;9.022;2023-03-14T18:40:28;4.40;;;2.17;;
42802;SDS011;28447;48.682;9.022;2023-03-14T18:42:54;7.27;;;2.30;;
42802;SDS011;28447;48.682;9.022;2023-03-14T18:45:20;2.83;;;2.03;;
42802;SDS011;28447;48.682;9.022;2023-03-14T18:47:46;3.07;;;2.03;;
42802;SDS011;28447;48.682;9.022;2023-03-14T18:50:11;4.37;;;2.30;;
42802;SDS011;28447;48.682;9.022;2023-03-14T18:52:37;4.37;;;2.00;;
42802;SDS011;28447;48.682;9.022;2023-03-14T18:55:03;1.80;;;1.70;;
42802;SDS011;28447;48.682;9.022;2023-03-14T18:57:29;2.70;;;2.10;;
42802;SDS011;28447;48.682;9.022;2023-03-14T18:59:55;3.63;;;2.50;;
42802;SDS011;28447;48.682;9.022;2023-03-14T19:02:25;5.73;;;2.17;;
42802;SDS011;28447;48.682;9.022;2023-03-14T19:04:51;5.27;;;2.20;;
42802;SDS011;28447;48.682;9.022;2023-03-14T19:07:17;4.83;;;2.87;;
42802;SDS011;28447;48.682;9.022;2023-03-14T19:09:44;3.97;;;2.27;;
42802;SDS011;28447;48.682;9.022;2023-03-14T19:12:10;7.20;;;2.40;;
42802;SDS011;28447;48.682;9.022;2023-03-14T19:14:35;5.67;;;2.07;;
42802;SDS011;28447;48.682;9.022;2023-03-14T19:17:01;7.57;;;2.33;;
42802;SDS011;28447;48.682;9.022;2023-03-14T19:19:27;4.20;;;2.17;;
42802;SDS011;28447;48.682;9.022;2023-03-14T19:21:52;4.00;;;2.60;;
42802;SDS011;28447;48.682;9.022;2023-03-14T19:24:18;6.97;;;2.90;;
42802;SDS011;28447;48.682;9.022;2023-03-14T19:26:46;3.70;;;2.40;;
42802;SDS011;28447;48.682;9.022;2023-03-14T19:29:12;7.30;;;2.50;;
42802;SDS011;28447;48.682;9.022;2023-03-14T19:31:38;4.40;;;2.07;;
42802;SDS011;28447;48.682;9.022;2023-03-14T19:34:04;2.83;;;1.83;;
42802;SDS011;28447;48.682;9.022;2023-03-14T19:36:31;3.90;;;2.20;;
42802;SDS011;28447;48.682;9.022;2023-03-14T19:38:58;5.03;;;1.90;;
42802;SDS011;28447;48.682;9.022;2023-03-14T19:41:26;3.47;;;1.97;;
42802;SDS011;28447;48.682;9.022;2023-03-14T19:43:52;5.07;;;2.63;;
42802;SDS011;28447;48.682;9.022;2023-03-14T19:46:18;3.03;;;2.03;;
42802;SDS011;28447;48.682;9.022;2023-03-14T19:48:45;4.63;;;2.30;;
42802;SDS011;28447;48.682;9.022;2023-03-14T19:51:14;3.00;;;1.90;;
42802;SDS011;28447;48.682;9.022;2023-03-14T19:53:41;3.77;;;2.00;;
42802;SDS011;28447;48.682;9.022;2023-03-14T19:56:08;4.90;;;2.00;;
42802;SDS011;28447;48.682;9.022;2023-03-14T19:58:34;2.73;;;2.20;;
42802;SDS011;28447;48.682;9.022;2023-03-14T20:01:01;4.47;;;2.60;;
42802;SDS011;28447;48.682;9.022;2023-03-14T20:03:27;3.00;;;1.93;;
42802;SDS011;28447;48.682;9.022;2023-03-14T20:05:53;5.33;;;2.50;;
42802;SDS011;28447;48.682;9.022;2023-03-14T20:08:20;2.50;;;2.30;;
42802;SDS011;28447;48.682;9.022;2023-03-14T20:10:46;10.33;;;2.60;;
42802;SDS011;28447;48.682;9.022;2023-03-14T20:13:12;4.70;;;2.30;;
42802;SDS011;28447;48.682;9.022;2023-03-14T20:15:38;6.17;;;3.03;;
42802;SDS011;28447;48.682;9.022;2023-03-14T20:18:05;4.10;;;2.70;;
42802;SDS011;28447;48.682;9.022;2023-03-14T20:20:30;6.53;;;2.70;;
42802;SDS011;28447;48.682;9.022;2023-03-14T20:22:56;3.40;;;2.30;;
42802;SDS011;28447;48.682;9.022;2023-03-14T20:25:22;4.20;;;3.00;;
42802;SDS011;28447;48.682;9.022;2023-03-14T20:27:48;4.23;;;2.70;;
42802;SDS011;28447;48.682;9.022;2023-03-14T20:30:16;4.00;;;2.40;;
42802;SDS011;28447;48.682;9.022;2023-03-14T20:32:45;5.57;;;2.60;;
42802;SDS011;28447;48.682;9.022;2023-03-14T20:35:12;6.90;;;2.60;;
42802;SDS011;28447;48.682;9.022;2023-03-14T20:37:47;4.00;;;2.83;;
42802;SDS011;28447;48.682;9.022;2023-03-14T20:40:22;4.67;;;3.10;;
42802;SDS011;28447;48.682;9.022;2023-03-14T20:42:49;5.00;;;3.10;;
42802;SDS011;28447;48.682;9.022;2023-03-14T20:45:15;3.40;;;2.37;;
42802;SDS011;28447;48.682;9.022;2023-03-14T20:47:41;4.27;;;2.50;;
42802;SDS011;28447;48.682;9.022;2023-03-14T20:50:07;2.80;;;2.47;;
42802;SDS011;28447;48.682;9.022;2023-03-14T20:52:33;2.77;;;2.17;;
42802;SDS011;28447;48.682;9.022;2023-03-14T20:54:59;5.00;;;2.90;;
42802;SDS011;28447;48.682;9.022;2023-03-14T20:57:25;3.93;;;2.00;;
42802;SDS011;28447;48.682;9.022;2023-03-14T20:59:51;3.90;;;2.83;;
42802;SDS011;28447;48.682;9.022;2023-03-14T21:02:16;3.10;;;2.67;;
42802;SDS011;28447;48.682;9.022;2023-03-14T21:04:42;4.70;;;2.70;;